Terminal Aerodrome Forecast
Issued by NWS St Louis, MO

Home | Current Version | Previous Version | Text Only | Print | Product List | Glossary On
Versions: 1 2 3 4 5 6 7 8 9 10 11 12 13 14 15 16 17 18 19 20 21 22 23 24 25 26 27
000
FTUS43 KLSX 212340
TAFCOU
TAF
KCOU 212340Z 2200/2224 05009KT P6SM OVC015
      TEMPO 2200/2203 5SM -FZDZ
     FM220300 06009KT 4SM -FZDZ BR OVC015
     FM221600 09008KT 5SM -DZ BR OVC008
     FM221800 09008KT P6SM OVC008=

USA.gov is the U.S. government's official web portal to all federal, state and local government web resources and services.